createdAt,value
2023-04-24T00:02:12.203Z,77.43
2023-04-24T00:04:47.306Z,77.57
2023-04-24T00:07:21.148Z,77.58
2023-04-24T00:09:52.872Z,77.77
2023-04-24T00:12:25.319Z,77.50
2023-04-24T00:14:56.982Z,77.13
2023-04-24T00:17:31.643Z,77.18
2023-04-24T00:20:07.868Z,77.30
2023-04-24T00:22:39.662Z,76.82
2023-04-24T00:25:11.474Z,76.75
2023-04-24T00:27:43.197Z,76.70
2023-04-24T00:30:15.424Z,76.84
2023-04-24T00:32:47.594Z,76.73
2023-04-24T00:35:20.988Z,76.56
2023-04-24T00:37:52.860Z,76.54
2023-04-24T00:40:24.575Z,76.31
2023-04-24T00:42:56.782Z,76.75
2023-04-24T00:45:28.613Z,76.48
2023-04-24T00:48:01.466Z,76.55
2023-04-24T00:50:33.683Z,76.00
2023-04-24T00:53:06.110Z,75.95
2023-04-24T00:55:38.410Z,76.17
2023-04-24T00:58:10.418Z,75.96
2023-04-24T01:00:42.249Z,75.56
2023-04-24T01:03:15.348Z,75.54
2023-04-24T01:05:47.512Z,75.46
2023-04-24T01:08:24.182Z,75.01
2023-04-24T01:10:58.995Z,75.15
2023-04-24T01:13:30.723Z,74.95
2023-04-24T01:16:02.575Z,74.33
2023-04-24T01:18:34.752Z,73.94
2023-04-24T01:21:10.008Z,73.33
2023-04-24T01:23:41.765Z,72.72
2023-04-24T01:26:15.782Z,72.26
2023-04-24T01:28:48.712Z,71.94
2023-04-24T01:31:21.547Z,71.59
2023-04-24T01:33:57.181Z,71.66
2023-04-24T01:36:30.341Z,71.33
2023-04-24T01:39:02.177Z,71.20
2023-04-24T01:41:34.494Z,71.05
2023-04-24T01:44:06.267Z,71.02
2023-04-24T01:46:38.839Z,70.87
2023-04-24T01:49:10.824Z,71.13
2023-04-24T01:51:43.881Z,70.99
2023-04-24T01:54:15.580Z,71.37
2023-04-24T01:56:47.703Z,71.40
2023-04-24T01:59:22.688Z,71.47
2023-04-24T02:01:54.439Z,71.26
2023-04-24T02:04:26.287Z,71.77
2023-04-24T02:06:59.241Z,72.11
2023-04-24T02:09:31.015Z,71.83
2023-04-24T02:12:02.706Z,71.99
2023-04-24T02:14:34.573Z,72.20
2023-04-24T02:17:06.324Z,72.20
2023-04-24T02:19:38.066Z,72.28
2023-04-24T02:22:09.755Z,72.26
2023-04-24T02:24:41.655Z,72.47
2023-04-24T02:27:14.640Z,72.48
2023-04-24T02:29:46.614Z,72.45
2023-04-24T02:32:18.440Z,72.50
2023-04-24T02:34:50.175Z,72.66
2023-04-24T02:37:21.802Z,72.63
2023-04-24T02:39:53.600Z,72.19
2023-04-24T02:42:25.341Z,72.29
2023-04-24T02:44:57.018Z,72.38
2023-04-24T02:47:28.743Z,72.77
2023-04-24T02:50:00.428Z,72.75
2023-04-24T02:52:32.185Z,72.94
2023-04-24T02:55:04.294Z,72.87
2023-04-24T02:57:36.272Z,72.83
2023-04-24T03:00:08.545Z,72.68
2023-04-24T03:02:40.420Z,72.60
2023-04-24T03:05:13.141Z,72.77
2023-04-24T03:07:44.923Z,72.84
2023-04-24T03:10:16.685Z,72.66
2023-04-24T03:12:48.392Z,72.98
2023-04-24T03:15:20.205Z,72.69
2023-04-24T03:17:52.228Z,72.67
2023-04-24T03:20:25.178Z,72.83
2023-04-24T03:22:58.204Z,72.73
2023-04-24T03:25:33.220Z,73.11
2023-04-24T03:28:05.049Z,73.09
2023-04-24T03:30:55.470Z,73.32
2023-04-24T03:33:28.889Z,73.49
2023-04-24T03:36:06.416Z,73.60
2023-04-24T03:38:44.913Z,73.23
2023-04-24T03:41:32.249Z,73.36
2023-04-24T03:44:10.139Z,73.57
2023-04-24T03:46:42.391Z,73.56
2023-04-24T03:49:14.799Z,73.66
2023-04-24T03:51:49.145Z,73.58
2023-04-24T03:54:28.109Z,73.69
2023-04-24T03:57:00.126Z,73.88
2023-04-24T03:59:33.422Z,73.69
2023-04-24T04:02:19.508Z,73.99
2023-04-24T04:04:52.106Z,73.87
2023-04-24T04:07:23.904Z,73.83
2023-04-24T04:09:55.992Z,73.85
2023-04-24T04:12:29.015Z,74.06
2023-04-24T04:15:01.007Z,74.16
2023-04-24T04:17:33.014Z,74.30
2023-04-24T04:20:11.047Z,74.50
2023-04-24T04:22:44.798Z,74.60
2023-04-24T04:25:22.041Z,74.50
2023-04-24T04:27:54.791Z,74.50
2023-04-24T04:30:26.964Z,74.74
2023-04-24T04:33:09.301Z,74.89
2023-04-24T04:35:42.228Z,74.81
2023-04-24T04:38:16.090Z,74.64
2023-04-24T04:40:52.303Z,74.59
2023-04-24T04:43:26.351Z,74.71
2023-04-24T04:46:01.818Z,75.06
2023-04-24T04:48:36.446Z,74.67
2023-04-24T04:51:10.877Z,75.19
2023-04-24T04:53:43.203Z,74.73
2023-04-24T04:56:15.032Z,74.69
2023-04-24T04:58:50.250Z,74.45
2023-04-24T05:01:24.213Z,74.74
2023-04-24T05:03:56.514Z,74.27
2023-04-24T05:06:28.639Z,74.48
2023-04-24T05:09:00.941Z,74.07
2023-04-24T05:11:49.056Z,74.58
2023-04-24T05:14:23.411Z,74.18
2023-04-24T05:16:55.613Z,74.28
2023-04-24T05:19:30.072Z,73.97
2023-04-24T05:22:04.197Z,73.98
2023-04-24T05:24:37.979Z,74.28
2023-04-24T05:27:36.203Z,73.97
2023-04-24T05:30:13.326Z,73.80
2023-04-24T05:32:45.791Z,73.58
2023-04-24T05:35:19.769Z,74.01
2023-04-24T05:37:51.645Z,73.54
2023-04-24T05:40:23.936Z,73.02
2023-04-24T05:42:55.648Z,73.17
2023-04-24T05:45:32.334Z,72.70
2023-04-24T05:48:04.575Z,73.05
2023-04-24T05:50:37.873Z,73.05
2023-04-24T05:53:11.657Z,72.80
2023-04-24T05:55:43.716Z,72.76
2023-04-24T05:58:15.662Z,72.71
2023-04-24T06:00:48.081Z,72.30
2023-04-24T06:03:20.068Z,72.97
2023-04-24T06:05:53.968Z,72.95
2023-04-24T06:08:27.462Z,72.86
2023-04-24T06:10:59.374Z,73.04
2023-04-24T06:13:31.380Z,72.72
2023-04-24T06:16:26.165Z,72.59
2023-04-24T06:19:05.157Z,72.69
2023-04-24T06:21:36.996Z,72.59
2023-04-24T06:24:08.793Z,72.79
2023-04-24T06:26:42.656Z,73.23
2023-04-24T06:29:16.525Z,72.75
2023-04-24T06:31:48.419Z,73.17
2023-04-24T06:34:20.219Z,72.86
2023-04-24T06:36:52.164Z,73.74
2023-04-24T06:39:24.011Z,73.93
2023-04-24T06:41:56.128Z,73.98
2023-04-24T06:44:29.277Z,74.48
2023-04-24T06:47:01.017Z,75.19
2023-04-24T06:49:32.718Z,75.12
2023-04-24T06:52:05.009Z,75.55
2023-04-24T06:54:36.776Z,75.75
2023-04-24T06:57:09.426Z,76.09
2023-04-24T06:59:43.478Z,75.64
2023-04-24T07:02:15.524Z,75.63
2023-04-24T07:04:48.488Z,75.60
2023-04-24T07:07:20.288Z,75.10
2023-04-24T07:09:51.992Z,74.84
2023-04-24T07:12:23.797Z,75.05
2023-04-24T07:14:55.605Z,75.24
2023-04-24T07:17:27.475Z,75.64
2023-04-24T07:19:59.286Z,75.51
2023-04-24T07:22:30.987Z,75.86
2023-04-24T07:25:03.525Z,75.18
2023-04-24T07:27:38.823Z,75.62
2023-04-24T07:30:11.106Z,75.13
2023-04-24T07:32:42.818Z,74.68
2023-04-24T07:35:17.441Z,75.06
2023-04-24T07:37:49.454Z,75.16
2023-04-24T07:40:22.070Z,75.14
2023-04-24T07:42:53.745Z,75.26
2023-04-24T07:45:27.213Z,75.32
2023-04-24T07:47:59.035Z,74.92
2023-04-24T07:50:30.804Z,74.87
2023-04-24T07:53:02.714Z,75.24
2023-04-24T07:55:34.549Z,74.75
2023-04-24T07:58:06.322Z,75.22
2023-04-24T08:00:38.090Z,75.68
2023-04-24T08:03:09.910Z,75.51
2023-04-24T08:05:42.924Z,76.04
2023-04-24T08:08:14.795Z,75.56
2023-04-24T08:10:46.572Z,75.77
2023-04-24T08:13:18.376Z,76.09
2023-04-24T08:15:50.388Z,76.73
2023-04-24T08:18:22.275Z,76.05
2023-04-24T08:20:54.109Z,76.00
2023-04-24T08:23:25.980Z,75.85
2023-04-24T08:25:58.762Z,75.31
2023-04-24T08:28:30.720Z,74.62
2023-04-24T08:31:02.428Z,74.17
2023-04-24T08:33:36.094Z,74.10
2023-04-24T08:36:08.364Z,74.57
2023-04-24T08:38:42.670Z,74.50
2023-04-24T08:41:17.066Z,73.62
2023-04-24T08:43:49.926Z,72.86
2023-04-24T08:46:23.587Z,72.68
2023-04-24T08:48:55.607Z,71.48
2023-04-24T08:51:27.646Z,71.98
2023-04-24T08:53:59.475Z,71.60
2023-04-24T08:56:34.382Z,72.47
2023-04-24T08:59:07.760Z,73.08
2023-04-24T09:01:41.101Z,73.11
2023-04-24T09:04:16.321Z,73.69
2023-04-24T09:06:50.113Z,73.81
2023-04-24T09:09:23.584Z,74.18
2023-04-24T09:11:56.633Z,74.22
2023-04-24T09:14:29.161Z,73.84
2023-04-24T09:17:00.908Z,74.01
2023-04-24T09:19:32.839Z,74.04
2023-04-24T09:22:08.726Z,73.68
2023-04-24T09:24:40.680Z,72.66
2023-04-24T09:27:13.826Z,73.04
2023-04-24T09:29:56.308Z,73.48
2023-04-24T09:32:32.807Z,72.51
2023-04-24T09:35:16.397Z,72.97
2023-04-24T09:37:49.901Z,72.68
2023-04-24T09:40:24.073Z,71.83
2023-04-24T09:43:02.149Z,70.01
2023-04-24T09:45:38.252Z,70.00
2023-04-24T09:48:11.159Z,69.80
2023-04-24T09:50:48.765Z,69.07
2023-04-24T09:53:25.743Z,68.66
2023-04-24T09:56:04.141Z,66.96
2023-04-24T09:58:37.463Z,66.60
2023-04-24T10:01:09.264Z,66.90
2023-04-24T10:03:45.713Z,65.13
2023-04-24T10:06:17.568Z,63.41
2023-04-24T10:08:51.934Z,63.50
2023-04-24T10:11:24.317Z,63.18
2023-04-24T10:13:56.865Z,62.29
2023-04-24T10:16:29.799Z,61.98
2023-04-24T10:19:04.235Z,62.30
2023-04-24T10:21:38.936Z,60.68
2023-04-24T10:24:18.189Z,59.71
2023-04-24T10:26:50.770Z,57.67
2023-04-24T10:29:23.386Z,56.25
2023-04-24T10:31:55.333Z,54.70
2023-04-24T10:34:27.511Z,54.20
2023-04-24T10:36:59.543Z,53.15
2023-04-24T10:39:34.432Z,52.29
2023-04-24T10:42:18.837Z,52.28
2023-04-24T10:44:51.310Z,51.58
2023-04-24T10:47:23.067Z,49.70
2023-04-24T10:49:54.955Z,50.19
2023-04-24T10:52:45.423Z,50.16
2023-04-24T10:55:17.236Z,50.87
2023-04-24T10:58:04.647Z,50.38
2023-04-24T11:00:41.595Z,49.89
2023-04-24T11:03:31.225Z,51.23
2023-04-24T11:06:08.009Z,50.90
2023-04-24T11:08:40.730Z,51.23
2023-04-24T11:11:17.907Z,51.04
2023-04-24T11:13:58.224Z,48.36
2023-04-24T11:16:35.667Z,47.88
2023-04-24T11:19:12.110Z,47.25
2023-04-24T11:21:49.975Z,46.65
2023-04-24T11:24:38.179Z,46.43
2023-04-24T11:27:15.921Z,44.64
2023-04-24T11:29:47.574Z,44.01
2023-04-24T11:32:40.976Z,43.79
2023-04-24T11:35:22.318Z,42.19
2023-04-24T11:40:30.068Z,41.75
2023-04-24T11:43:02.092Z,41.97
2023-04-24T11:45:33.887Z,42.07
2023-04-24T11:48:05.607Z,43.30
2023-04-24T11:50:37.531Z,43.34
2023-04-24T11:53:09.630Z,42.70
2023-04-24T11:55:41.606Z,43.34
2023-04-24T11:58:13.504Z,44.29
2023-04-24T12:00:46.734Z,44.99
2023-04-24T12:03:18.986Z,45.34
2023-04-24T12:05:51.498Z,44.75
2023-04-24T12:08:29.934Z,44.83
2023-04-24T12:11:03.325Z,45.44
2023-04-24T12:13:36.305Z,46.41
2023-04-24T12:16:08.512Z,48.65
2023-04-24T12:18:45.264Z,51.71
2023-04-24T12:21:23.083Z,55.49
2023-04-24T12:23:57.913Z,57.31
2023-04-24T12:26:30.183Z,56.77
2023-04-24T12:29:04.614Z,57.10
2023-04-24T12:31:36.355Z,57.50
2023-04-24T12:34:21.848Z,59.18
2023-04-24T12:36:54.320Z,59.49
2023-04-24T12:39:27.895Z,59.40
2023-04-24T12:42:00.966Z,61.22
2023-04-24T12:44:36.468Z,60.72
2023-04-24T12:47:08.590Z,61.39
2023-04-24T12:49:40.344Z,62.33
2023-04-24T12:52:12.098Z,63.37
2023-04-24T12:54:43.824Z,63.16
2023-04-24T12:57:16.261Z,63.08
2023-04-24T12:59:48.055Z,62.40
2023-04-24T13:02:19.984Z,62.13
2023-04-24T13:04:52.757Z,62.72
2023-04-24T13:07:24.741Z,62.61
2023-04-24T13:09:58.042Z,62.73
2023-04-24T13:12:29.842Z,64.27
2023-04-24T13:15:01.535Z,64.63
2023-04-24T13:17:34.138Z,64.15
2023-04-24T13:20:06.493Z,64.34
2023-04-24T13:22:38.508Z,64.64
2023-04-24T13:25:11.169Z,64.35
2023-04-24T13:27:43.119Z,63.75
2023-04-24T13:30:15.167Z,62.92
2023-04-24T13:32:47.073Z,62.80
2023-04-24T13:35:18.862Z,61.70
2023-04-24T13:37:50.681Z,61.31
2023-04-24T13:40:22.482Z,61.01
2023-04-24T13:42:54.257Z,61.79
2023-04-24T13:45:26.081Z,62.41
2023-04-24T13:47:58.397Z,62.37
2023-04-24T13:50:30.202Z,62.22
2023-04-24T13:53:03.677Z,61.32
2023-04-24T13:55:35.539Z,60.51
2023-04-24T13:58:07.671Z,58.76
2023-04-24T14:00:42.570Z,57.10
2023-04-24T14:03:14.720Z,54.41
2023-04-24T14:05:46.554Z,50.60
2023-04-24T14:08:18.323Z,48.97
2023-04-24T14:10:51.768Z,49.21
2023-04-24T14:13:23.635Z,47.08
2023-04-24T14:15:55.758Z,47.65
2023-04-24T14:18:27.951Z,46.74
2023-04-24T14:21:00.317Z,45.89
2023-04-24T14:23:32.222Z,45.48
2023-04-24T14:26:04.014Z,45.47
2023-04-24T14:28:35.821Z,45.91
2023-04-24T14:31:07.676Z,46.08
2023-04-24T14:33:39.425Z,45.80
2023-04-24T14:36:11.373Z,44.71
2023-04-24T14:38:43.526Z,44.18
2023-04-24T14:41:18.144Z,44.72
2023-04-24T14:43:49.749Z,45.05
2023-04-24T14:46:21.618Z,44.40
2023-04-24T14:48:53.376Z,43.81
2023-04-24T14:51:25.309Z,43.70
2023-04-24T14:53:59.582Z,43.47
2023-04-24T14:56:31.378Z,43.26
2023-04-24T14:59:03.711Z,42.23
2023-04-24T15:01:35.741Z,41.96
2023-04-24T15:04:07.639Z,41.51
2023-04-24T15:06:39.611Z,40.90
2023-04-24T15:09:11.442Z,41.16
2023-04-24T15:11:43.169Z,39.94
2023-04-24T15:14:16.053Z,40.02
2023-04-24T15:16:47.905Z,40.03
2023-04-24T15:19:19.720Z,40.36
2023-04-24T15:21:51.434Z,40.99
2023-04-24T15:24:23.225Z,39.85
2023-04-24T15:26:57.409Z,40.74
2023-04-24T15:29:30.395Z,40.42
2023-04-24T15:32:02.711Z,39.50
2023-04-24T15:34:35.252Z,39.31
2023-04-24T15:37:07.191Z,38.90
2023-04-24T15:39:39.010Z,38.86
2023-04-24T15:42:10.760Z,38.52
2023-04-24T15:44:46.062Z,38.78
2023-04-24T15:47:17.820Z,38.93
2023-04-24T15:49:49.585Z,39.16
2023-04-24T15:52:21.530Z,38.28
2023-04-24T15:54:53.235Z,38.36
2023-04-24T15:57:25.117Z,38.88
2023-04-24T15:59:56.861Z,39.27
2023-04-24T16:02:30.651Z,38.02
2023-04-24T16:05:02.595Z,37.57
2023-04-24T16:07:34.738Z,38.35
2023-04-24T16:10:06.981Z,38.78
2023-04-24T16:12:38.936Z,38.67
2023-04-24T16:15:31.241Z,38.96
2023-04-24T16:18:05.738Z,38.66
2023-04-24T16:20:40.854Z,38.74
2023-04-24T16:23:12.924Z,39.31
2023-04-24T16:25:44.725Z,39.67
2023-04-24T16:28:18.502Z,40.23
2023-04-24T16:30:50.259Z,40.25
2023-04-24T16:33:22.029Z,39.41
2023-04-24T16:35:53.914Z,39.93
2023-04-24T16:38:26.565Z,40.08
2023-04-24T16:40:58.376Z,40.05
2023-04-24T16:43:30.138Z,39.95
2023-04-24T16:46:02.744Z,40.15
2023-04-24T16:48:35.070Z,40.43
2023-04-24T16:51:06.888Z,40.30
2023-04-24T16:53:38.540Z,40.16
2023-04-24T16:56:10.300Z,39.80
2023-04-24T16:58:42.063Z,39.01
2023-04-24T17:01:13.969Z,39.41
2023-04-24T17:03:46.709Z,39.45
2023-04-24T17:06:18.728Z,39.79
2023-04-24T17:08:50.775Z,39.41
2023-04-24T17:11:23.117Z,39.79
2023-04-24T17:13:54.916Z,40.08
2023-04-24T17:16:26.830Z,40.65
2023-04-24T17:18:58.870Z,41.01
2023-04-24T17:21:31.677Z,40.98
2023-04-24T17:24:03.647Z,41.55
2023-04-24T17:26:35.695Z,41.64
2023-04-24T17:29:07.459Z,41.93
2023-04-24T17:31:39.183Z,42.19
2023-04-24T17:34:11.098Z,42.58
2023-04-24T17:36:42.839Z,42.53
2023-04-24T17:39:14.587Z,42.37
2023-04-24T17:41:46.409Z,43.15
2023-04-24T17:44:18.083Z,43.76
2023-04-24T17:46:49.820Z,44.00
2023-04-24T17:49:21.481Z,43.81
2023-04-24T17:51:53.348Z,44.30
2023-04-24T17:54:25.422Z,44.42
2023-04-24T17:56:57.258Z,44.39
2023-04-24T17:59:29.051Z,44.55
2023-04-24T18:02:03.016Z,44.76
2023-04-24T18:04:35.647Z,44.56
2023-04-24T18:07:08.519Z,45.04
2023-04-24T18:09:41.351Z,44.98
2023-04-24T18:12:13.076Z,45.16
2023-04-24T18:14:44.837Z,44.89
2023-04-24T18:17:16.549Z,45.40
2023-04-24T18:19:48.226Z,45.79
2023-04-24T18:22:20.035Z,45.60
2023-04-24T18:24:51.804Z,45.55
2023-04-24T18:27:25.301Z,46.00
2023-04-24T18:29:57.774Z,45.90
2023-04-24T18:32:29.679Z,46.40
2023-04-24T18:35:01.633Z,46.84
2023-04-24T18:37:33.680Z,46.83
2023-04-24T18:40:06.084Z,46.78
2023-04-24T18:42:37.955Z,47.10
2023-04-24T18:45:11.848Z,47.49
2023-04-24T18:47:45.791Z,47.10
2023-04-24T18:50:20.062Z,47.31
2023-04-24T18:52:51.785Z,47.28
2023-04-24T18:55:23.502Z,47.58
2023-04-24T18:57:55.212Z,47.80
2023-04-24T19:00:30.565Z,47.60
2023-04-24T19:03:03.131Z,47.98
2023-04-24T19:05:35.112Z,48.12
2023-04-24T19:08:07.091Z,48.31
2023-04-24T19:10:38.851Z,48.32
2023-04-24T19:13:10.683Z,48.51
2023-04-24T19:15:42.876Z,48.53
2023-04-24T19:18:14.612Z,49.01
2023-04-24T19:20:46.629Z,49.14
2023-04-24T19:23:18.490Z,49.18
2023-04-24T19:25:50.355Z,49.48
2023-04-24T19:28:22.300Z,49.50
2023-04-24T19:30:58.413Z,49.68
2023-04-24T19:33:30.480Z,49.68
2023-04-24T19:36:02.594Z,49.84
2023-04-24T19:38:34.613Z,49.98
2023-04-24T19:41:06.495Z,50.10
2023-04-24T19:43:38.955Z,50.44
2023-04-24T19:46:10.964Z,50.44
2023-04-24T19:48:42.852Z,50.50
2023-04-24T19:51:14.641Z,50.22
2023-04-24T19:53:46.396Z,50.74
2023-04-24T19:56:18.093Z,50.97
2023-04-24T19:58:50.189Z,51.08
2023-04-24T20:01:22.103Z,50.83
2023-04-24T20:03:54.062Z,50.89
2023-04-24T20:06:25.977Z,51.29
2023-04-24T20:08:57.802Z,51.33
2023-04-24T20:11:29.464Z,51.41
2023-04-24T20:14:04.022Z,51.48
2023-04-24T20:16:35.760Z,51.37
2023-04-24T20:19:08.145Z,51.85
2023-04-24T20:21:39.977Z,51.78
2023-04-24T20:24:11.844Z,51.96
2023-04-24T20:26:43.608Z,52.59
2023-04-24T20:29:15.493Z,52.40
2023-04-24T20:31:47.290Z,52.43
2023-04-24T20:34:19.385Z,52.63
2023-04-24T20:36:51.140Z,52.66
2023-04-24T20:39:23.188Z,52.88
2023-04-24T20:41:54.869Z,53.17
2023-04-24T20:44:26.687Z,53.42
2023-04-24T20:46:58.430Z,53.47
2023-04-24T20:49:30.213Z,53.47
2023-04-24T20:52:02.013Z,53.88
2023-04-24T20:54:34.089Z,53.80
2023-04-24T20:57:05.946Z,53.91
2023-04-24T20:59:38.798Z,54.11
2023-04-24T21:02:10.586Z,54.20
2023-04-24T21:04:42.352Z,54.00
2023-04-24T21:07:15.316Z,54.14
2023-04-24T21:09:47.153Z,54.32
2023-04-24T21:12:18.884Z,53.84
2023-04-24T21:14:51.816Z,54.13
2023-04-24T21:17:23.648Z,53.99
2023-04-24T21:19:56.604Z,54.13
2023-04-24T21:22:28.329Z,54.21
2023-04-24T21:25:00.031Z,54.35
2023-04-24T21:27:31.833Z,54.26
2023-04-24T21:30:06.004Z,54.67
2023-04-24T21:32:39.222Z,54.67
2023-04-24T21:35:11.429Z,54.83
2023-04-24T21:37:43.238Z,54.69
2023-04-24T21:40:16.024Z,54.81
2023-04-24T21:42:48.008Z,55.27
2023-04-24T21:45:20.222Z,55.49
2023-04-24T21:47:52.135Z,55.50
2023-04-24T21:50:23.910Z,55.56
2023-04-24T21:52:55.785Z,55.46
2023-04-24T21:55:27.704Z,55.74
2023-04-24T21:57:59.611Z,55.88
2023-04-24T22:00:31.508Z,55.86
2023-04-24T22:03:04.390Z,55.78
2023-04-24T22:05:36.970Z,56.12
2023-04-24T22:08:09.737Z,55.94
2023-04-24T22:10:41.460Z,55.80
2023-04-24T22:13:13.203Z,55.99
2023-04-24T22:15:45.193Z,56.26
2023-04-24T22:18:18.895Z,56.47
2023-04-24T22:20:50.733Z,56.55
2023-04-24T22:23:22.472Z,56.87
2023-04-24T22:25:54.257Z,56.50
2023-04-24T22:28:26.385Z,56.66
2023-04-24T22:30:58.426Z,56.80
2023-04-24T22:33:33.067Z,57.17
2023-04-24T22:36:04.991Z,57.00
2023-04-24T22:38:36.779Z,57.12
2023-04-24T22:41:08.593Z,56.90
2023-04-24T22:43:40.329Z,56.97
2023-04-24T22:46:12.015Z,56.70
2023-04-24T22:48:44.308Z,56.81
2023-04-24T22:51:18.199Z,56.67
2023-04-24T22:53:50.229Z,56.79
2023-04-24T22:56:22.197Z,56.87
2023-04-24T22:58:53.895Z,56.77
2023-04-24T23:01:29.161Z,56.67
2023-04-24T23:04:01.400Z,57.25
2023-04-24T23:06:33.670Z,57.13
2023-04-24T23:09:05.346Z,57.30
2023-04-24T23:11:37.253Z,57.48
2023-04-24T23:14:09.129Z,57.86
2023-04-24T23:16:42.773Z,57.80
2023-04-24T23:19:17.368Z,58.33
2023-04-24T23:21:50.132Z,58.04
2023-04-24T23:24:22.211Z,58.02
2023-04-24T23:26:53.940Z,58.32
2023-04-24T23:29:26.283Z,58.40
2023-04-24T23:31:58.420Z,58.32
2023-04-24T23:34:30.241Z,58.43
2023-04-24T23:37:01.933Z,58.85
2023-04-24T23:39:34.402Z,58.54
2023-04-24T23:42:07.864Z,58.91
2023-04-24T23:44:39.610Z,58.37
2023-04-24T23:47:11.371Z,58.22
2023-04-24T23:49:43.105Z,58.75
2023-04-24T23:52:14.891Z,58.59
2023-04-24T23:54:47.825Z,58.97
2023-04-24T23:57:19.714Z,58.62
2023-04-24T23:59:52.378Z,58.65
